sensor_id;sensor_type;location;lat;lon;timestamp;P1;durP1;ratioP1;P2;durP2;ratioP2
79284;SDS011;68734;50.452;11.636;2023-04-03T00:01:43;4.47;;;1.73;;
79284;SDS011;68734;50.452;11.636;2023-04-03T00:04:08;3.28;;;1.42;;
79284;SDS011;68734;50.452;11.636;2023-04-03T00:06:36;2.53;;;1.05;;
79284;SDS011;68734;50.452;11.636;2023-04-03T00:09:02;3.92;;;1.15;;
79284;SDS011;68734;50.452;11.636;2023-04-03T00:11:28;2.70;;;1.27;;
79284;SDS011;68734;50.452;11.636;2023-04-03T00:13:53;2.08;;;1.15;;
79284;SDS011;68734;50.452;11.636;2023-04-03T00:16:22;3.50;;;1.15;;
79284;SDS011;68734;50.452;11.636;2023-04-03T00:18:47;1.48;;;1.17;;
79284;SDS011;68734;50.452;11.636;2023-04-03T00:21:13;3.78;;;1.27;;
79284;SDS011;68734;50.452;11.636;2023-04-03T00:23:43;2.20;;;1.23;;
79284;SDS011;68734;50.452;11.636;2023-04-03T00:26:11;1.83;;;1.10;;
79284;SDS011;68734;50.452;11.636;2023-04-03T00:28:37;3.58;;;1.27;;
79284;SDS011;68734;50.452;11.636;2023-04-03T00:31:02;1.25;;;0.77;;
79284;SDS011;68734;50.452;11.636;2023-04-03T00:33:28;1.83;;;1.27;;
79284;SDS011;68734;50.452;11.636;2023-04-03T00:35:53;4.68;;;1.30;;
79284;SDS011;68734;50.452;11.636;2023-04-03T00:38:19;4.00;;;1.77;;
79284;SDS011;68734;50.452;11.636;2023-04-03T00:40:45;0.50;;;0.47;;
79284;SDS011;68734;50.452;11.636;2023-04-03T00:43:23;3.20;;;1.55;;
79284;SDS011;68734;50.452;11.636;2023-04-03T00:45:51;2.75;;;1.08;;
79284;SDS011;68734;50.452;11.636;2023-04-03T00:48:26;3.70;;;1.52;;
79284;SDS011;68734;50.452;11.636;2023-04-03T00:50:55;2.03;;;1.20;;
79284;SDS011;68734;50.452;11.636;2023-04-03T00:53:30;1.50;;;0.82;;
79284;SDS011;68734;50.452;11.636;2023-04-03T00:55:58;1.58;;;1.17;;
79284;SDS011;68734;50.452;11.636;2023-04-03T00:58:32;6.82;;;1.10;;
79284;SDS011;68734;50.452;11.636;2023-04-03T01:01:05;4.43;;;1.45;;
79284;SDS011;68734;50.452;11.636;2023-04-03T01:03:35;1.55;;;1.33;;
79284;SDS011;68734;50.452;11.636;2023-04-03T01:06:01;1.88;;;1.35;;
79284;SDS011;68734;50.452;11.636;2023-04-03T01:08:26;3.38;;;1.35;;
79284;SDS011;68734;50.452;11.636;2023-04-03T01:10:52;1.35;;;1.02;;
79284;SDS011;68734;50.452;11.636;2023-04-03T01:13:25;4.70;;;1.10;;
79284;SDS011;68734;50.452;11.636;2023-04-03T01:16:00;1.77;;;1.15;;
79284;SDS011;68734;50.452;11.636;2023-04-03T01:18:28;3.10;;;1.10;;
79284;SDS011;68734;50.452;11.636;2023-04-03T01:23:32;1.98;;;0.80;;
79284;SDS011;68734;50.452;11.636;2023-04-03T01:26:07;3.30;;;1.38;;
79284;SDS011;68734;50.452;11.636;2023-04-03T01:28:35;2.08;;;1.13;;
79284;SDS011;68734;50.452;11.636;2023-04-03T01:33:45;2.88;;;1.90;;
79284;SDS011;68734;50.452;11.636;2023-04-03T01:36:16;2.95;;;1.33;;
79284;SDS011;68734;50.452;11.636;2023-04-03T01:38:45;2.65;;;0.95;;
79284;SDS011;68734;50.452;11.636;2023-04-03T01:41:11;2.75;;;0.80;;
79284;SDS011;68734;50.452;11.636;2023-04-03T01:43:37;2.33;;;1.20;;
79284;SDS011;68734;50.452;11.636;2023-04-03T01:46:02;4.32;;;1.33;;
79284;SDS011;68734;50.452;11.636;2023-04-03T01:48:27;3.35;;;1.45;;
79284;SDS011;68734;50.452;11.636;2023-04-03T01:50:53;3.95;;;1.95;;
79284;SDS011;68734;50.452;11.636;2023-04-03T01:53:19;4.05;;;1.40;;
79284;SDS011;68734;50.452;11.636;2023-04-03T01:55:44;3.85;;;0.80;;
79284;SDS011;68734;50.452;11.636;2023-04-03T01:58:10;7.15;;;2.25;;
79284;SDS011;68734;50.452;11.636;2023-04-03T02:00:36;2.30;;;1.77;;
79284;SDS011;68734;50.452;11.636;2023-04-03T02:03:01;3.60;;;1.80;;
79284;SDS011;68734;50.452;11.636;2023-04-03T02:05:27;4.20;;;2.30;;
79284;SDS011;68734;50.452;11.636;2023-04-03T02:07:55;2.45;;;1.70;;
79284;SDS011;68734;50.452;11.636;2023-04-03T02:10:21;1.65;;;1.08;;
79284;SDS011;68734;50.452;11.636;2023-04-03T02:12:49;2.30;;;0.98;;
79284;SDS011;68734;50.452;11.636;2023-04-03T02:15:15;2.70;;;1.13;;
79284;SDS011;68734;50.452;11.636;2023-04-03T02:17:40;2.60;;;1.45;;
79284;SDS011;68734;50.452;11.636;2023-04-03T02:20:06;3.38;;;1.10;;
79284;SDS011;68734;50.452;11.636;2023-04-03T02:22:35;1.25;;;0.98;;
79284;SDS011;68734;50.452;11.636;2023-04-03T02:25:03;2.88;;;1.15;;
79284;SDS011;68734;50.452;11.636;2023-04-03T02:27:29;1.73;;;1.50;;
79284;SDS011;68734;50.452;11.636;2023-04-03T02:29:59;4.22;;;1.80;;
79284;SDS011;68734;50.452;11.636;2023-04-03T02:32:24;1.77;;;1.08;;
79284;SDS011;68734;50.452;11.636;2023-04-03T02:34:50;1.42;;;1.30;;
79284;SDS011;68734;50.452;11.636;2023-04-03T02:37:15;7.30;;;1.23;;
79284;SDS011;68734;50.452;11.636;2023-04-03T02:39:41;2.65;;;1.25;;
79284;SDS011;68734;50.452;11.636;2023-04-03T02:42:06;2.17;;;1.10;;
79284;SDS011;68734;50.452;11.636;2023-04-03T02:44:32;2.50;;;0.82;;
79284;SDS011;68734;50.452;11.636;2023-04-03T02:47:00;0.95;;;0.60;;
79284;SDS011;68734;50.452;11.636;2023-04-03T02:49:26;2.67;;;1.05;;
79284;SDS011;68734;50.452;11.636;2023-04-03T02:51:53;3.42;;;0.73;;
79284;SDS011;68734;50.452;11.636;2023-04-03T02:54:19;6.20;;;1.70;;
79284;SDS011;68734;50.452;11.636;2023-04-03T02:56:48;3.25;;;1.05;;
79284;SDS011;68734;50.452;11.636;2023-04-03T02:59:14;1.63;;;1.17;;
79284;SDS011;68734;50.452;11.636;2023-04-03T03:01:39;2.17;;;1.40;;
79284;SDS011;68734;50.452;11.636;2023-04-03T03:04:07;2.40;;;1.58;;
79284;SDS011;68734;50.452;11.636;2023-04-03T03:06:32;2.22;;;1.55;;
79284;SDS011;68734;50.452;11.636;2023-04-03T03:08:58;1.38;;;1.27;;
79284;SDS011;68734;50.452;11.636;2023-04-03T03:11:23;1.75;;;1.63;;
79284;SDS011;68734;50.452;11.636;2023-04-03T03:13:50;2.33;;;1.50;;
79284;SDS011;68734;50.452;11.636;2023-04-03T03:16:18;1.98;;;1.77;;
79284;SDS011;68734;50.452;11.636;2023-04-03T03:18:46;4.63;;;1.90;;
79284;SDS011;68734;50.452;11.636;2023-04-03T03:21:14;2.97;;;1.38;;
79284;SDS011;68734;50.452;11.636;2023-04-03T03:23:39;1.42;;;1.25;;
79284;SDS011;68734;50.452;11.636;2023-04-03T03:26:08;2.10;;;1.33;;
79284;SDS011;68734;50.452;11.636;2023-04-03T03:28:35;2.47;;;1.70;;
79284;SDS011;68734;50.452;11.636;2023-04-03T03:31:02;2.47;;;1.25;;
79284;SDS011;68734;50.452;11.636;2023-04-03T03:33:27;2.10;;;1.20;;
79284;SDS011;68734;50.452;11.636;2023-04-03T03:35:56;2.90;;;1.60;;
79284;SDS011;68734;50.452;11.636;2023-04-03T03:38:24;2.85;;;1.80;;
79284;SDS011;68734;50.452;11.636;2023-04-03T03:40:50;7.07;;;1.58;;
79284;SDS011;68734;50.452;11.636;2023-04-03T03:43:16;1.40;;;0.85;;
79284;SDS011;68734;50.452;11.636;2023-04-03T03:45:42;5.00;;;1.38;;
79284;SDS011;68734;50.452;11.636;2023-04-03T03:48:07;1.30;;;0.55;;
79284;SDS011;68734;50.452;11.636;2023-04-03T03:50:33;2.35;;;1.65;;
79284;SDS011;68734;50.452;11.636;2023-04-03T03:52:58;3.10;;;1.10;;
79284;SDS011;68734;50.452;11.636;2023-04-03T03:55:26;2.28;;;1.33;;
79284;SDS011;68734;50.452;11.636;2023-04-03T03:57:52;1.80;;;1.02;;
79284;SDS011;68734;50.452;11.636;2023-04-03T04:00:20;2.25;;;0.95;;
79284;SDS011;68734;50.452;11.636;2023-04-03T04:02:46;2.42;;;1.35;;
79284;SDS011;68734;50.452;11.636;2023-04-03T04:05:11;2.83;;;1.83;;
79284;SDS011;68734;50.452;11.636;2023-04-03T04:07:42;3.65;;;1.58;;
79284;SDS011;68734;50.452;11.636;2023-04-03T04:10:10;3.03;;;1.48;;
79284;SDS011;68734;50.452;11.636;2023-04-03T04:12:35;4.82;;;1.80;;
79284;SDS011;68734;50.452;11.636;2023-04-03T04:15:01;6.88;;;1.15;;
79284;SDS011;68734;50.452;11.636;2023-04-03T04:17:27;4.72;;;1.83;;
79284;SDS011;68734;50.452;11.636;2023-04-03T04:19:52;1.67;;;1.50;;
79284;SDS011;68734;50.452;11.636;2023-04-03T04:22:18;1.80;;;1.67;;
79284;SDS011;68734;50.452;11.636;2023-04-03T04:24:43;4.65;;;2.83;;
79284;SDS011;68734;50.452;11.636;2023-04-03T04:27:09;8.07;;;2.30;;
79284;SDS011;68734;50.452;11.636;2023-04-03T04:29:34;4.15;;;2.10;;
79284;SDS011;68734;50.452;11.636;2023-04-03T04:32:02;2.05;;;1.13;;
79284;SDS011;68734;50.452;11.636;2023-04-03T04:34:28;3.45;;;2.03;;
79284;SDS011;68734;50.452;11.636;2023-04-03T04:36:57;2.92;;;1.90;;
79284;SDS011;68734;50.452;11.636;2023-04-03T04:39:22;3.22;;;1.35;;
79284;SDS011;68734;50.452;11.636;2023-04-03T04:41:48;2.55;;;1.92;;
79284;SDS011;68734;50.452;11.636;2023-04-03T04:44:13;2.92;;;1.63;;
79284;SDS011;68734;50.452;11.636;2023-04-03T04:46:39;2.92;;;1.33;;
79284;SDS011;68734;50.452;11.636;2023-04-03T04:49:05;3.28;;;2.35;;
79284;SDS011;68734;50.452;11.636;2023-04-03T04:51:30;3.47;;;3.00;;
79284;SDS011;68734;50.452;11.636;2023-04-03T04:54:03;4.47;;;2.00;;
79284;SDS011;68734;50.452;11.636;2023-04-03T04:56:29;3.58;;;1.92;;
79284;SDS011;68734;50.452;11.636;2023-04-03T04:58:54;4.00;;;2.50;;
79284;SDS011;68734;50.452;11.636;2023-04-03T05:01:20;2.40;;;1.58;;
79284;SDS011;68734;50.452;11.636;2023-04-03T05:03:46;4.72;;;2.55;;
79284;SDS011;68734;50.452;11.636;2023-04-03T05:06:12;3.28;;;2.42;;
79284;SDS011;68734;50.452;11.636;2023-04-03T05:08:38;5.75;;;2.47;;
79284;SDS011;68734;50.452;11.636;2023-04-03T05:11:03;1.63;;;1.35;;
79284;SDS011;68734;50.452;11.636;2023-04-03T05:13:29;1.77;;;1.65;;
79284;SDS011;68734;50.452;11.636;2023-04-03T05:15:54;8.20;;;2.85;;
79284;SDS011;68734;50.452;11.636;2023-04-03T05:18:22;2.45;;;1.98;;
79284;SDS011;68734;50.452;11.636;2023-04-03T05:20:50;2.05;;;1.30;;
79284;SDS011;68734;50.452;11.636;2023-04-03T05:23:16;3.05;;;1.67;;
79284;SDS011;68734;50.452;11.636;2023-04-03T05:25:42;4.95;;;1.83;;
79284;SDS011;68734;50.452;11.636;2023-04-03T05:28:09;6.70;;;3.08;;
79284;SDS011;68734;50.452;11.636;2023-04-03T05:30:35;4.13;;;2.47;;
79284;SDS011;68734;50.452;11.636;2023-04-03T05:33:00;6.00;;;2.95;;
79284;SDS011;68734;50.452;11.636;2023-04-03T05:35:26;8.48;;;2.85;;
79284;SDS011;68734;50.452;11.636;2023-04-03T05:37:52;5.03;;;2.28;;
79284;SDS011;68734;50.452;11.636;2023-04-03T05:40:20;4.32;;;1.92;;
79284;SDS011;68734;50.452;11.636;2023-04-03T05:42:45;7.88;;;2.30;;
79284;SDS011;68734;50.452;11.636;2023-04-03T05:45:13;5.20;;;2.40;;
79284;SDS011;68734;50.452;11.636;2023-04-03T05:47:39;3.05;;;2.47;;
79284;SDS011;68734;50.452;11.636;2023-04-03T05:50:05;2.45;;;1.92;;
79284;SDS011;68734;50.452;11.636;2023-04-03T05:52:35;2.88;;;2.03;;
79284;SDS011;68734;50.452;11.636;2023-04-03T05:55:03;3.33;;;2.38;;
79284;SDS011;68734;50.452;11.636;2023-04-03T05:57:29;4.88;;;2.97;;
79284;SDS011;68734;50.452;11.636;2023-04-03T05:59:57;3.30;;;2.75;;
79284;SDS011;68734;50.452;11.636;2023-04-03T06:02:23;5.93;;;2.10;;
79284;SDS011;68734;50.452;11.636;2023-04-03T06:04:49;3.65;;;2.28;;
79284;SDS011;68734;50.452;11.636;2023-04-03T06:07:19;3.47;;;3.00;;
79284;SDS011;68734;50.452;11.636;2023-04-03T06:09:47;3.20;;;2.60;;
79284;SDS011;68734;50.452;11.636;2023-04-03T06:12:14;5.05;;;2.97;;
79284;SDS011;68734;50.452;11.636;2023-04-03T06:14:40;4.32;;;3.33;;
79284;SDS011;68734;50.452;11.636;2023-04-03T06:17:06;4.82;;;3.28;;
79284;SDS011;68734;50.452;11.636;2023-04-03T06:19:32;7.70;;;3.15;;
79284;SDS011;68734;50.452;11.636;2023-04-03T06:21:57;3.10;;;2.58;;
79284;SDS011;68734;50.452;11.636;2023-04-03T06:24:25;5.75;;;2.78;;
79284;SDS011;68734;50.452;11.636;2023-04-03T06:26:51;2.92;;;2.50;;
79284;SDS011;68734;50.452;11.636;2023-04-03T06:29:18;2.50;;;2.20;;
79284;SDS011;68734;50.452;11.636;2023-04-03T06:31:44;6.32;;;3.63;;
79284;SDS011;68734;50.452;11.636;2023-04-03T06:34:11;4.55;;;2.78;;
79284;SDS011;68734;50.452;11.636;2023-04-03T06:36:37;2.53;;;2.05;;
79284;SDS011;68734;50.452;11.636;2023-04-03T06:39:03;5.97;;;2.78;;
79284;SDS011;68734;50.452;11.636;2023-04-03T06:41:29;4.53;;;2.55;;
79284;SDS011;68734;50.452;11.636;2023-04-03T06:43:55;4.07;;;2.50;;
79284;SDS011;68734;50.452;11.636;2023-04-03T06:46:23;3.00;;;1.92;;
79284;SDS011;68734;50.452;11.636;2023-04-03T06:48:51;4.97;;;2.50;;
79284;SDS011;68734;50.452;11.636;2023-04-03T06:51:18;7.10;;;2.50;;
79284;SDS011;68734;50.452;11.636;2023-04-03T06:53:46;4.07;;;1.02;;
79284;SDS011;68734;50.452;11.636;2023-04-03T06:56:14;1.58;;;1.17;;
79284;SDS011;68734;50.452;11.636;2023-04-03T06:58:41;3.10;;;2.25;;
79284;SDS011;68734;50.452;11.636;2023-04-03T07:01:08;2.33;;;2.00;;
79284;SDS011;68734;50.452;11.636;2023-04-03T07:03:35;2.95;;;1.85;;
79284;SDS011;68734;50.452;11.636;2023-04-03T07:06:01;2.17;;;1.30;;
79284;SDS011;68734;50.452;11.636;2023-04-03T07:08:30;4.13;;;2.08;;
79284;SDS011;68734;50.452;11.636;2023-04-03T07:10:57;2.17;;;1.60;;
79284;SDS011;68734;50.452;11.636;2023-04-03T07:13:22;2.28;;;1.33;;
79284;SDS011;68734;50.452;11.636;2023-04-03T07:15:48;1.60;;;1.30;;
79284;SDS011;68734;50.452;11.636;2023-04-03T07:18:14;6.22;;;2.42;;
79284;SDS011;68734;50.452;11.636;2023-04-03T07:20:41;1.75;;;1.65;;
79284;SDS011;68734;50.452;11.636;2023-04-03T07:23:07;1.73;;;1.17;;
79284;SDS011;68734;50.452;11.636;2023-04-03T07:25:32;4.68;;;2.22;;
79284;SDS011;68734;50.452;11.636;2023-04-03T07:27:58;2.40;;;2.15;;
79284;SDS011;68734;50.452;11.636;2023-04-03T07:30:24;3.65;;;2.05;;
79284;SDS011;68734;50.452;11.636;2023-04-03T07:32:50;1.75;;;1.30;;
79284;SDS011;68734;50.452;11.636;2023-04-03T07:35:16;4.45;;;2.38;;
79284;SDS011;68734;50.452;11.636;2023-04-03T07:37:45;4.70;;;2.17;;
79284;SDS011;68734;50.452;11.636;2023-04-03T07:40:11;2.20;;;2.00;;
79284;SDS011;68734;50.452;11.636;2023-04-03T07:42:36;4.53;;;2.10;;
79284;SDS011;68734;50.452;11.636;2023-04-03T07:45:05;2.60;;;1.70;;
79284;SDS011;68734;50.452;11.636;2023-04-03T07:47:30;2.78;;;1.77;;
79284;SDS011;68734;50.452;11.636;2023-04-03T07:49:58;5.18;;;1.15;;
79284;SDS011;68734;50.452;11.636;2023-04-03T07:52:24;1.77;;;1.67;;
79284;SDS011;68734;50.452;11.636;2023-04-03T07:54:50;8.02;;;1.98;;
79284;SDS011;68734;50.452;11.636;2023-04-03T07:57:15;3.05;;;1.20;;
79284;SDS011;68734;50.452;11.636;2023-04-03T07:59:41;5.30;;;1.85;;
79284;SDS011;68734;50.452;11.636;2023-04-03T08:02:10;1.02;;;0.90;;
79284;SDS011;68734;50.452;11.636;2023-04-03T08:04:37;1.95;;;1.38;;
79284;SDS011;68734;50.452;11.636;2023-04-03T08:07:02;1.55;;;1.20;;
79284;SDS011;68734;50.452;11.636;2023-04-03T08:09:28;1.17;;;1.08;;
79284;SDS011;68734;50.452;11.636;2023-04-03T08:11:58;6.97;;;1.55;;
79284;SDS011;68734;50.452;11.636;2023-04-03T08:14:24;2.88;;;1.60;;
79284;SDS011;68734;50.452;11.636;2023-04-03T08:16:50;1.88;;;1.02;;
79284;SDS011;68734;50.452;11.636;2023-04-03T08:19:15;1.85;;;1.27;;
79284;SDS011;68734;50.452;11.636;2023-04-03T08:21:43;2.25;;;1.30;;
79284;SDS011;68734;50.452;11.636;2023-04-03T08:24:10;3.22;;;2.13;;
79284;SDS011;68734;50.452;11.636;2023-04-03T08:26:36;1.35;;;1.00;;
79284;SDS011;68734;50.452;11.636;2023-04-03T08:29:02;1.17;;;0.93;;
79284;SDS011;68734;50.452;11.636;2023-04-03T08:31:27;4.28;;;2.33;;
79284;SDS011;68734;50.452;11.636;2023-04-03T08:33:53;1.83;;;1.08;;
79284;SDS011;68734;50.452;11.636;2023-04-03T08:36:20;2.25;;;1.65;;
79284;SDS011;68734;50.452;11.636;2023-04-03T08:38:51;1.33;;;1.10;;
79284;SDS011;68734;50.452;11.636;2023-04-03T08:49:42;1.83;;;1.15;;
79284;SDS011;68734;50.452;11.636;2023-04-03T08:52:17;1.83;;;1.33;;
79284;SDS011;68734;50.452;11.636;2023-04-03T08:57:17;2.58;;;1.52;;
79284;SDS011;68734;50.452;11.636;2023-04-03T08:59:45;4.45;;;1.60;;
79284;SDS011;68734;50.452;11.636;2023-04-03T09:02:23;3.40;;;1.50;;
79284;SDS011;68734;50.452;11.636;2023-04-03T09:04:57;3.08;;;1.60;;
79284;SDS011;68734;50.452;11.636;2023-04-03T09:07:26;1.27;;;0.85;;
79284;SDS011;68734;50.452;11.636;2023-04-03T09:09:59;4.50;;;1.25;;
79284;SDS011;68734;50.452;11.636;2023-04-03T09:12:32;4.45;;;1.42;;
79284;SDS011;68734;50.452;11.636;2023-04-03T09:23:44;3.10;;;1.17;;
79284;SDS011;68734;50.452;11.636;2023-04-03T09:26:19;3.10;;;1.05;;
79284;SDS011;68734;50.452;11.636;2023-04-03T09:28:51;3.17;;;1.60;;
79284;SDS011;68734;50.452;11.636;2023-04-03T09:31:23;2.60;;;1.02;;
79284;SDS011;68734;50.452;11.636;2023-04-03T09:33:52;2.53;;;1.38;;
79284;SDS011;68734;50.452;11.636;2023-04-03T09:36:50;1.50;;;1.17;;
79284;SDS011;68734;50.452;11.636;2023-04-03T09:39:19;3.00;;;1.55;;
79284;SDS011;68734;50.452;11.636;2023-04-03T09:46:55;1.48;;;0.38;;
79284;SDS011;68734;50.452;11.636;2023-04-03T09:49:21;10.50;;;1.08;;
79284;SDS011;68734;50.452;11.636;2023-04-03T09:51:47;2.10;;;1.10;;
79284;SDS011;68734;50.452;11.636;2023-04-03T09:54:25;4.47;;;1.13;;
79284;SDS011;68734;50.452;11.636;2023-04-03T09:57:12;1.52;;;1.15;;
79284;SDS011;68734;50.452;11.636;2023-04-03T09:59:45;1.88;;;0.88;;
79284;SDS011;68734;50.452;11.636;2023-04-03T10:02:32;0.55;;;0.50;;
79284;SDS011;68734;50.452;11.636;2023-04-03T10:05:00;1.15;;;0.82;;
79284;SDS011;68734;50.452;11.636;2023-04-03T10:12:40;1.80;;;0.85;;
79284;SDS011;68734;50.452;11.636;2023-04-03T10:15:15;3.00;;;1.10;;
79284;SDS011;68734;50.452;11.636;2023-04-03T10:17:56;0.75;;;0.60;;
79284;SDS011;68734;50.452;11.636;2023-04-03T10:25:32;0.82;;;0.80;;
79284;SDS011;68734;50.452;11.636;2023-04-03T10:28:21;1.02;;;0.75;;
79284;SDS011;68734;50.452;11.636;2023-04-03T10:31:02;1.70;;;0.43;;
79284;SDS011;68734;50.452;11.636;2023-04-03T10:47:33;1.00;;;0.40;;
79284;SDS011;68734;50.452;11.636;2023-04-03T10:57:52;0.60;;;0.60;;
79284;SDS011;68734;50.452;11.636;2023-04-03T11:00:22;0.63;;;0.50;;
79284;SDS011;68734;50.452;11.636;2023-04-03T11:03:13;1.23;;;0.38;;
79284;SDS011;68734;50.452;11.636;2023-04-03T11:05:44;2.65;;;1.13;;
79284;SDS011;68734;50.452;11.636;2023-04-03T11:08:21;0.52;;;0.50;;
79284;SDS011;68734;50.452;11.636;2023-04-03T11:10:51;0.47;;;0.38;;
79284;SDS011;68734;50.452;11.636;2023-04-03T11:16:12;1.13;;;0.22;;
79284;SDS011;68734;50.452;11.636;2023-04-03T11:18:47;0.38;;;0.30;;
79284;SDS011;68734;50.452;11.636;2023-04-03T11:21:20;2.83;;;0.63;;
79284;SDS011;68734;50.452;11.636;2023-04-03T11:24:24;1.80;;;0.50;;
79284;SDS011;68734;50.452;11.636;2023-04-03T11:26:52;0.63;;;0.30;;
79284;SDS011;68734;50.452;11.636;2023-04-03T11:29:27;1.45;;;0.73;;
79284;SDS011;68734;50.452;11.636;2023-04-03T11:32:08;0.88;;;0.70;;
79284;SDS011;68734;50.452;11.636;2023-04-03T11:34:37;2.33;;;0.73;;
79284;SDS011;68734;50.452;11.636;2023-04-03T11:42:42;0.88;;;0.60;;
79284;SDS011;68734;50.452;11.636;2023-04-03T11:47:50;1.08;;;0.50;;
79284;SDS011;68734;50.452;11.636;2023-04-03T11:50:31;0.20;;;0.20;;
79284;SDS011;68734;50.452;11.636;2023-04-03T11:53:09;0.75;;;0.40;;
79284;SDS011;68734;50.452;11.636;2023-04-03T11:55:59;1.30;;;0.45;;
79284;SDS011;68734;50.452;11.636;2023-04-03T12:19:04;3.00;;;0.60;;
79284;SDS011;68734;50.452;11.636;2023-04-03T12:41:15;0.63;;;0.22;;
79284;SDS011;68734;50.452;11.636;2023-04-03T12:46:03;2.70;;;0.73;;
79284;SDS011;68734;50.452;11.636;2023-04-03T12:48:34;2.83;;;0.63;;
79284;SDS011;68734;50.452;11.636;2023-04-03T12:51:18;1.73;;;0.40;;
79284;SDS011;68734;50.452;11.636;2023-04-03T12:53:47;1.42;;;1.00;;
79284;SDS011;68734;50.452;11.636;2023-04-03T12:56:24;1.23;;;0.50;;
79284;SDS011;68734;50.452;11.636;2023-04-03T12:58:55;3.63;;;0.60;;
79284;SDS011;68734;50.452;11.636;2023-04-03T13:01:39;1.17;;;0.70;;
79284;SDS011;68734;50.452;11.636;2023-04-03T13:04:06;0.50;;;0.45;;
79284;SDS011;68734;50.452;11.636;2023-04-03T13:06:34;1.50;;;0.47;;
79284;SDS011;68734;50.452;11.636;2023-04-03T13:09:05;1.05;;;0.40;;
79284;SDS011;68734;50.452;11.636;2023-04-03T13:11:36;1.13;;;0.32;;
79284;SDS011;68734;50.452;11.636;2023-04-03T13:14:14;2.33;;;1.00;;
79284;SDS011;68734;50.452;11.636;2023-04-03T13:16:42;1.05;;;0.60;;
79284;SDS011;68734;50.452;11.636;2023-04-03T13:19:18;1.65;;;0.98;;
79284;SDS011;68734;50.452;11.636;2023-04-03T13:21:43;3.25;;;0.38;;
79284;SDS011;68734;50.452;11.636;2023-04-03T13:24:10;2.10;;;0.80;;
79284;SDS011;68734;50.452;11.636;2023-04-03T13:26:36;1.58;;;0.32;;
79284;SDS011;68734;50.452;11.636;2023-04-03T13:29:04;0.52;;;0.52;;
79284;SDS011;68734;50.452;11.636;2023-04-03T13:31:33;1.65;;;0.68;;
79284;SDS011;68734;50.452;11.636;2023-04-03T13:34:05;4.50;;;1.00;;
79284;SDS011;68734;50.452;11.636;2023-04-03T13:36:58;1.30;;;0.70;;
79284;SDS011;68734;50.452;11.636;2023-04-03T13:39:36;1.23;;;0.45;;
79284;SDS011;68734;50.452;11.636;2023-04-03T13:42:20;1.60;;;1.45;;
79284;SDS011;68734;50.452;11.636;2023-04-03T13:44:46;1.00;;;0.85;;
79284;SDS011;68734;50.452;11.636;2023-04-03T13:47:17;12.40;;;0.95;;
79284;SDS011;68734;50.452;11.636;2023-04-03T13:50:04;1.38;;;0.43;;
79284;SDS011;68734;50.452;11.636;2023-04-03T13:52:43;1.95;;;0.90;;
79284;SDS011;68734;50.452;11.636;2023-04-03T13:55:23;0.38;;;0.30;;
79284;SDS011;68734;50.452;11.636;2023-04-03T13:58:02;3.03;;;0.65;;
79284;SDS011;68734;50.452;11.636;2023-04-03T14:06:14;1.17;;;0.77;;
79284;SDS011;68734;50.452;11.636;2023-04-03T14:08:41;0.32;;;0.25;;
79284;SDS011;68734;50.452;11.636;2023-04-03T14:11:30;0.80;;;0.50;;
79284;SDS011;68734;50.452;11.636;2023-04-03T14:13:55;3.08;;;0.98;;
79284;SDS011;68734;50.452;11.636;2023-04-03T14:16:27;0.90;;;0.52;;
79284;SDS011;68734;50.452;11.636;2023-04-03T14:19:03;0.45;;;0.30;;
79284;SDS011;68734;50.452;11.636;2023-04-03T14:21:28;1.90;;;0.50;;
79284;SDS011;68734;50.452;11.636;2023-04-03T14:23:54;0.80;;;0.40;;
79284;SDS011;68734;50.452;11.636;2023-04-03T14:26:21;2.70;;;0.82;;
79284;SDS011;68734;50.452;11.636;2023-04-03T14:28:49;2.53;;;0.70;;
79284;SDS011;68734;50.452;11.636;2023-04-03T14:31:17;1.17;;;0.55;;
79284;SDS011;68734;50.452;11.636;2023-04-03T14:33:43;1.73;;;0.75;;
79284;SDS011;68734;50.452;11.636;2023-04-03T14:38:43;2.50;;;0.75;;
79284;SDS011;68734;50.452;11.636;2023-04-03T14:41:14;1.48;;;0.50;;
79284;SDS011;68734;50.452;11.636;2023-04-03T14:43:41;1.00;;;0.75;;
79284;SDS011;68734;50.452;11.636;2023-04-03T14:46:17;0.52;;;0.40;;
79284;SDS011;68734;50.452;11.636;2023-04-03T14:48:46;0.98;;;0.50;;
79284;SDS011;68734;50.452;11.636;2023-04-03T14:51:12;0.85;;;0.32;;
79284;SDS011;68734;50.452;11.636;2023-04-03T14:53:39;3.30;;;1.08;;
79284;SDS011;68734;50.452;11.636;2023-04-03T14:56:13;0.30;;;0.30;;
79284;SDS011;68734;50.452;11.636;2023-04-03T14:58:40;2.10;;;0.38;;
79284;SDS011;68734;50.452;11.636;2023-04-03T15:01:06;4.00;;;0.98;;
79284;SDS011;68734;50.452;11.636;2023-04-03T15:03:31;0.43;;;0.40;;
79284;SDS011;68734;50.452;11.636;2023-04-03T15:05:57;3.25;;;0.60;;
79284;SDS011;68734;50.452;11.636;2023-04-03T15:08:24;1.35;;;0.45;;
79284;SDS011;68734;50.452;11.636;2023-04-03T15:10:51;5.05;;;0.93;;
79284;SDS011;68734;50.452;11.636;2023-04-03T15:13:18;1.95;;;0.63;;
79284;SDS011;68734;50.452;11.636;2023-04-03T15:15:45;2.58;;;1.10;;
79284;SDS011;68734;50.452;11.636;2023-04-03T15:18:15;3.30;;;1.75;;
79284;SDS011;68734;50.452;11.636;2023-04-03T15:20:53;2.08;;;1.00;;
79284;SDS011;68734;50.452;11.636;2023-04-03T15:23:20;2.47;;;0.70;;
79284;SDS011;68734;50.452;11.636;2023-04-03T15:25:51;1.60;;;1.20;;
79284;SDS011;68734;50.452;11.636;2023-04-03T15:28:19;0.70;;;0.40;;
79284;SDS011;68734;50.452;11.636;2023-04-03T15:30:52;1.15;;;0.98;;
79284;SDS011;68734;50.452;11.636;2023-04-03T15:33:17;0.82;;;0.80;;
79284;SDS011;68734;50.452;11.636;2023-04-03T15:35:43;1.20;;;0.88;;
79284;SDS011;68734;50.452;11.636;2023-04-03T15:38:11;1.35;;;0.93;;
79284;SDS011;68734;50.452;11.636;2023-04-03T15:40:39;1.10;;;0.50;;
79284;SDS011;68734;50.452;11.636;2023-04-03T15:43:06;0.68;;;0.68;;
79284;SDS011;68734;50.452;11.636;2023-04-03T15:45:32;0.80;;;0.47;;
79284;SDS011;68734;50.452;11.636;2023-04-03T15:48:00;1.42;;;0.60;;
79284;SDS011;68734;50.452;11.636;2023-04-03T15:50:26;0.88;;;0.60;;
79284;SDS011;68734;50.452;11.636;2023-04-03T15:52:52;1.52;;;0.60;;
79284;SDS011;68734;50.452;11.636;2023-04-03T15:55:23;1.02;;;0.80;;
79284;SDS011;68734;50.452;11.636;2023-04-03T15:57:49;2.03;;;0.80;;
79284;SDS011;68734;50.452;11.636;2023-04-03T16:00:16;1.20;;;1.10;;
79284;SDS011;68734;50.452;11.636;2023-04-03T16:02:42;0.60;;;0.43;;
79284;SDS011;68734;50.452;11.636;2023-04-03T16:05:10;1.25;;;0.90;;
79284;SDS011;68734;50.452;11.636;2023-04-03T16:07:42;2.95;;;0.68;;
79284;SDS011;68734;50.452;11.636;2023-04-03T16:10:09;0.75;;;0.73;;
79284;SDS011;68734;50.452;11.636;2023-04-03T16:12:38;1.42;;;0.88;;
79284;SDS011;68734;50.452;11.636;2023-04-03T16:15:06;1.23;;;0.80;;
79284;SDS011;68734;50.452;11.636;2023-04-03T16:17:32;1.90;;;0.77;;
79284;SDS011;68734;50.452;11.636;2023-04-03T16:20:02;1.05;;;0.63;;
79284;SDS011;68734;50.452;11.636;2023-04-03T16:22:29;0.90;;;0.90;;
79284;SDS011;68734;50.452;11.636;2023-04-03T16:24:55;2.50;;;1.10;;
79284;SDS011;68734;50.452;11.636;2023-04-03T16:27:21;2.05;;;0.88;;
79284;SDS011;68734;50.452;11.636;2023-04-03T16:29:52;1.58;;;0.85;;
79284;SDS011;68734;50.452;11.636;2023-04-03T16:32:19;1.25;;;0.90;;
79284;SDS011;68734;50.452;11.636;2023-04-03T16:34:45;2.40;;;0.60;;
79284;SDS011;68734;50.452;11.636;2023-04-03T16:37:10;0.55;;;0.47;;
79284;SDS011;68734;50.452;11.636;2023-04-03T16:39:35;0.98;;;0.65;;
79284;SDS011;68734;50.452;11.636;2023-04-03T16:42:01;2.47;;;0.68;;
79284;SDS011;68734;50.452;11.636;2023-04-03T16:44:28;1.65;;;0.73;;
79284;SDS011;68734;50.452;11.636;2023-04-03T16:46:54;1.77;;;1.25;;